sensor_id;sensor_type;location;lat;lon;timestamp;temperature;humidity
32293;DHT22;43233;48.608;8.838;2023-08-07T00:00:26;10.60;81.00
32293;DHT22;43233;48.608;8.838;2023-08-07T00:02:52;10.60;81.20
32293;DHT22;43233;48.608;8.838;2023-08-07T00:05:17;10.60;81.30
32293;DHT22;43233;48.608;8.838;2023-08-07T00:07:43;10.60;81.10
32293;DHT22;43233;48.608;8.838;2023-08-07T00:10:10;10.60;81.20
32293;DHT22;43233;48.608;8.838;2023-08-07T00:12:36;10.60;81.50
32293;DHT22;43233;48.608;8.838;2023-08-07T00:15:03;10.60;81.30
32293;DHT22;43233;48.608;8.838;2023-08-07T00:17:29;10.60;81.00
32293;DHT22;43233;48.608;8.838;2023-08-07T00:19:55;10.60;80.80
32293;DHT22;43233;48.608;8.838;2023-08-07T00:22:20;10.60;81.00
32293;DHT22;43233;48.608;8.838;2023-08-07T00:24:46;10.60;81.10
32293;DHT22;43233;48.608;8.838;2023-08-07T00:27:12;10.60;80.90
32293;DHT22;43233;48.608;8.838;2023-08-07T00:29:38;10.70;80.80
32293;DHT22;43233;48.608;8.838;2023-08-07T00:32:04;10.60;80.70
32293;DHT22;43233;48.608;8.838;2023-08-07T00:34:30;10.60;80.60
32293;DHT22;43233;48.608;8.838;2023-08-07T00:36:55;10.60;80.50
32293;DHT22;43233;48.608;8.838;2023-08-07T00:39:21;10.60;80.30
32293;DHT22;43233;48.608;8.838;2023-08-07T00:41:47;10.60;80.40
32293;DHT22;43233;48.608;8.838;2023-08-07T00:44:12;10.60;80.10
32293;DHT22;43233;48.608;8.838;2023-08-07T00:46:39;10.50;80.50
32293;DHT22;43233;48.608;8.838;2023-08-07T00:49:05;10.50;80.50
32293;DHT22;43233;48.608;8.838;2023-08-07T00:51:31;10.50;80.70
32293;DHT22;43233;48.608;8.838;2023-08-07T00:53:58;10.60;80.20
32293;DHT22;43233;48.608;8.838;2023-08-07T00:56:26;10.60;79.80
32293;DHT22;43233;48.608;8.838;2023-08-07T00:58:51;10.60;80.00
32293;DHT22;43233;48.608;8.838;2023-08-07T01:01:18;10.60;79.80
32293;DHT22;43233;48.608;8.838;2023-08-07T01:03:44;10.60;79.50
32293;DHT22;43233;48.608;8.838;2023-08-07T01:06:09;10.60;79.80
32293;DHT22;43233;48.608;8.838;2023-08-07T01:08:35;10.60;79.90
32293;DHT22;43233;48.608;8.838;2023-08-07T01:11:32;10.60;79.70
32293;DHT22;43233;48.608;8.838;2023-08-07T01:19:29;10.60;79.90
32293;DHT22;43233;48.608;8.838;2023-08-07T01:24:39;10.70;79.10
32293;DHT22;43233;48.608;8.838;2023-08-07T01:27:14;10.70;78.20
32293;DHT22;43233;48.608;8.838;2023-08-07T01:35:46;10.70;76.80
32293;DHT22;43233;48.608;8.838;2023-08-07T01:38:13;10.80;77.00
32293;DHT22;43233;48.608;8.838;2023-08-07T01:40:39;10.80;77.10
32293;DHT22;43233;48.608;8.838;2023-08-07T01:43:05;10.80;77.10
32293;DHT22;43233;48.608;8.838;2023-08-07T01:45:31;10.80;76.90
32293;DHT22;43233;48.608;8.838;2023-08-07T01:47:57;10.70;77.20
32293;DHT22;43233;48.608;8.838;2023-08-07T01:50:24;10.70;77.50
32293;DHT22;43233;48.608;8.838;2023-08-07T01:52:50;10.70;77.50
32293;DHT22;43233;48.608;8.838;2023-08-07T01:55:17;10.70;77.90
32293;DHT22;43233;48.608;8.838;2023-08-07T01:57:43;10.70;77.40
32293;DHT22;43233;48.608;8.838;2023-08-07T02:00:09;10.70;76.80
32293;DHT22;43233;48.608;8.838;2023-08-07T02:02:36;10.70;77.50
32293;DHT22;43233;48.608;8.838;2023-08-07T02:05:02;10.70;77.30
32293;DHT22;43233;48.608;8.838;2023-08-07T02:07:27;10.60;77.00
32293;DHT22;43233;48.608;8.838;2023-08-07T02:09:53;10.60;76.50
32293;DHT22;43233;48.608;8.838;2023-08-07T02:12:18;10.60;76.40
32293;DHT22;43233;48.608;8.838;2023-08-07T02:14:44;10.60;75.80
32293;DHT22;43233;48.608;8.838;2023-08-07T02:17:10;10.60;77.50
32293;DHT22;43233;48.608;8.838;2023-08-07T02:19:35;10.60;76.20
32293;DHT22;43233;48.608;8.838;2023-08-07T02:22:02;10.60;76.50
32293;DHT22;43233;48.608;8.838;2023-08-07T02:24:27;10.60;75.30
32293;DHT22;43233;48.608;8.838;2023-08-07T02:26:53;10.50;75.80
32293;DHT22;43233;48.608;8.838;2023-08-07T02:29:18;10.50;75.10
32293;DHT22;43233;48.608;8.838;2023-08-07T02:31:44;10.50;73.90
32293;DHT22;43233;48.608;8.838;2023-08-07T02:34:10;10.50;73.50
32293;DHT22;43233;48.608;8.838;2023-08-07T02:36:35;10.60;73.30
32293;DHT22;43233;48.608;8.838;2023-08-07T02:39:01;10.60;73.80
32293;DHT22;43233;48.608;8.838;2023-08-07T02:41:26;10.60;73.20
32293;DHT22;43233;48.608;8.838;2023-08-07T02:43:53;10.50;73.10
32293;DHT22;43233;48.608;8.838;2023-08-07T02:46:18;10.50;73.30
32293;DHT22;43233;48.608;8.838;2023-08-07T02:48:44;10.50;73.00
32293;DHT22;43233;48.608;8.838;2023-08-07T02:51:10;10.50;73.00
32293;DHT22;43233;48.608;8.838;2023-08-07T02:53:36;10.50;73.60
32293;DHT22;43233;48.608;8.838;2023-08-07T02:56:01;10.50;73.40
32293;DHT22;43233;48.608;8.838;2023-08-07T02:58:27;10.50;73.60
32293;DHT22;43233;48.608;8.838;2023-08-07T03:00:53;10.50;73.90
32293;DHT22;43233;48.608;8.838;2023-08-07T03:03:18;10.50;74.40
32293;DHT22;43233;48.608;8.838;2023-08-07T03:05:48;10.50;73.80
32293;DHT22;43233;48.608;8.838;2023-08-07T03:08:15;10.40;72.80
32293;DHT22;43233;48.608;8.838;2023-08-07T03:10:41;10.50;73.50
32293;DHT22;43233;48.608;8.838;2023-08-07T03:13:06;10.40;73.60
32293;DHT22;43233;48.608;8.838;2023-08-07T03:15:34;10.40;73.70
32293;DHT22;43233;48.608;8.838;2023-08-07T03:18:00;10.40;73.60
32293;DHT22;43233;48.608;8.838;2023-08-07T03:20:26;10.40;74.00
32293;DHT22;43233;48.608;8.838;2023-08-07T03:22:51;10.40;73.90
32293;DHT22;43233;48.608;8.838;2023-08-07T03:25:18;10.40;73.40
32293;DHT22;43233;48.608;8.838;2023-08-07T03:27:46;10.40;73.90
32293;DHT22;43233;48.608;8.838;2023-08-07T03:30:17;10.40;73.40
32293;DHT22;43233;48.608;8.838;2023-08-07T03:32:43;10.30;73.50
32293;DHT22;43233;48.608;8.838;2023-08-07T03:35:09;10.40;73.40
32293;DHT22;43233;48.608;8.838;2023-08-07T03:37:34;10.40;73.40
32293;DHT22;43233;48.608;8.838;2023-08-07T03:40:00;10.40;73.10
32293;DHT22;43233;48.608;8.838;2023-08-07T03:42:25;10.40;73.40
32293;DHT22;43233;48.608;8.838;2023-08-07T03:44:51;10.40;73.70
32293;DHT22;43233;48.608;8.838;2023-08-07T03:47:17;10.40;73.40
32293;DHT22;43233;48.608;8.838;2023-08-07T03:49:43;10.30;73.50
32293;DHT22;43233;48.608;8.838;2023-08-07T03:52:08;10.30;73.60
32293;DHT22;43233;48.608;8.838;2023-08-07T03:54:34;10.30;73.90
32293;DHT22;43233;48.608;8.838;2023-08-07T03:56:59;10.30;73.60
32293;DHT22;43233;48.608;8.838;2023-08-07T03:59:25;10.30;73.70
32293;DHT22;43233;48.608;8.838;2023-08-07T04:01:51;10.30;73.50
32293;DHT22;43233;48.608;8.838;2023-08-07T04:04:16;10.30;73.60
32293;DHT22;43233;48.608;8.838;2023-08-07T04:06:42;10.30;73.90
32293;DHT22;43233;48.608;8.838;2023-08-07T04:09:09;10.30;73.90
32293;DHT22;43233;48.608;8.838;2023-08-07T04:11:36;10.30;73.90
32293;DHT22;43233;48.608;8.838;2023-08-07T04:14:01;10.30;74.00
32293;DHT22;43233;48.608;8.838;2023-08-07T04:16:27;10.20;74.00
32293;DHT22;43233;48.608;8.838;2023-08-07T04:18:53;10.30;74.10
32293;DHT22;43233;48.608;8.838;2023-08-07T04:21:18;10.30;73.90
32293;DHT22;43233;48.608;8.838;2023-08-07T04:23:44;10.30;74.00
32293;DHT22;43233;48.608;8.838;2023-08-07T04:26:10;10.30;74.00
32293;DHT22;43233;48.608;8.838;2023-08-07T04:28:35;10.20;73.60
32293;DHT22;43233;48.608;8.838;2023-08-07T04:31:01;10.30;74.00
32293;DHT22;43233;48.608;8.838;2023-08-07T04:33:27;10.30;74.00
32293;DHT22;43233;48.608;8.838;2023-08-07T04:35:53;10.20;74.00
32293;DHT22;43233;48.608;8.838;2023-08-07T04:38:19;10.30;74.20
32293;DHT22;43233;48.608;8.838;2023-08-07T04:40:49;10.30;74.00
32293;DHT22;43233;48.608;8.838;2023-08-07T04:43:16;10.30;74.00
32293;DHT22;43233;48.608;8.838;2023-08-07T04:45:42;10.30;74.50
32293;DHT22;43233;48.608;8.838;2023-08-07T04:48:10;10.30;74.50
32293;DHT22;43233;48.608;8.838;2023-08-07T04:50:37;10.30;74.50
32293;DHT22;43233;48.608;8.838;2023-08-07T04:53:04;10.30;74.30
32293;DHT22;43233;48.608;8.838;2023-08-07T04:55:31;10.30;74.60
32293;DHT22;43233;48.608;8.838;2023-08-07T04:57:57;10.30;74.60
32293;DHT22;43233;48.608;8.838;2023-08-07T05:00:23;10.30;74.50
32293;DHT22;43233;48.608;8.838;2023-08-07T05:02:49;10.30;74.00
32293;DHT22;43233;48.608;8.838;2023-08-07T05:05:16;10.40;74.20
32293;DHT22;43233;48.608;8.838;2023-08-07T05:07:42;10.40;74.50
32293;DHT22;43233;48.608;8.838;2023-08-07T05:10:09;10.40;74.40
32293;DHT22;43233;48.608;8.838;2023-08-07T05:12:35;10.40;74.10
32293;DHT22;43233;48.608;8.838;2023-08-07T05:15:00;10.50;74.30
32293;DHT22;43233;48.608;8.838;2023-08-07T05:17:26;10.40;74.20
32293;DHT22;43233;48.608;8.838;2023-08-07T05:19:52;10.50;74.10
32293;DHT22;43233;48.608;8.838;2023-08-07T05:22:17;10.50;74.10
32293;DHT22;43233;48.608;8.838;2023-08-07T05:24:43;10.50;73.90
32293;DHT22;43233;48.608;8.838;2023-08-07T05:27:10;10.60;74.20
32293;DHT22;43233;48.608;8.838;2023-08-07T05:29:36;10.60;74.10
32293;DHT22;43233;48.608;8.838;2023-08-07T05:32:15;10.70;73.90
32293;DHT22;43233;48.608;8.838;2023-08-07T05:34:40;10.70;74.30
32293;DHT22;43233;48.608;8.838;2023-08-07T05:37:06;10.70;73.40
32293;DHT22;43233;48.608;8.838;2023-08-07T05:39:34;10.70;73.90
32293;DHT22;43233;48.608;8.838;2023-08-07T05:42:00;10.80;73.30
32293;DHT22;43233;48.608;8.838;2023-08-07T05:44:25;10.80;73.30
32293;DHT22;43233;48.608;8.838;2023-08-07T05:46:51;10.80;73.20
32293;DHT22;43233;48.608;8.838;2023-08-07T05:49:17;10.90;73.20
32293;DHT22;43233;48.608;8.838;2023-08-07T05:51:43;10.90;72.10
32293;DHT22;43233;48.608;8.838;2023-08-07T05:54:09;10.90;72.40
32293;DHT22;43233;48.608;8.838;2023-08-07T05:56:35;10.90;72.10
32293;DHT22;43233;48.608;8.838;2023-08-07T05:59:00;11.00;71.70
32293;DHT22;43233;48.608;8.838;2023-08-07T06:01:26;11.00;71.70
32293;DHT22;43233;48.608;8.838;2023-08-07T06:03:56;11.00;71.90
32293;DHT22;43233;48.608;8.838;2023-08-07T06:06:22;11.00;71.80
32293;DHT22;43233;48.608;8.838;2023-08-07T06:08:48;11.10;71.80
32293;DHT22;43233;48.608;8.838;2023-08-07T06:11:14;11.10;72.10
32293;DHT22;43233;48.608;8.838;2023-08-07T06:13:42;11.10;71.90
32293;DHT22;43233;48.608;8.838;2023-08-07T06:16:08;11.10;71.70
32293;DHT22;43233;48.608;8.838;2023-08-07T06:18:34;11.20;71.70
32293;DHT22;43233;48.608;8.838;2023-08-07T06:21:00;11.20;72.10
32293;DHT22;43233;48.608;8.838;2023-08-07T06:23:26;11.20;72.90
32293;DHT22;43233;48.608;8.838;2023-08-07T06:25:51;11.40;72.60
32293;DHT22;43233;48.608;8.838;2023-08-07T06:28:17;11.40;73.00
32293;DHT22;43233;48.608;8.838;2023-08-07T06:30:43;11.40;71.30
32293;DHT22;43233;48.608;8.838;2023-08-07T06:33:08;11.50;72.80
32293;DHT22;43233;48.608;8.838;2023-08-07T06:35:38;11.60;71.30
32293;DHT22;43233;48.608;8.838;2023-08-07T06:38:04;11.60;71.50
32293;DHT22;43233;48.608;8.838;2023-08-07T06:40:30;11.70;71.00
32293;DHT22;43233;48.608;8.838;2023-08-07T06:42:56;11.70;71.90
32293;DHT22;43233;48.608;8.838;2023-08-07T06:45:21;11.80;69.40
32293;DHT22;43233;48.608;8.838;2023-08-07T06:47:47;11.80;69.60
32293;DHT22;43233;48.608;8.838;2023-08-07T06:50:13;11.90;70.10
32293;DHT22;43233;48.608;8.838;2023-08-07T06:52:39;11.90;69.20
32293;DHT22;43233;48.608;8.838;2023-08-07T06:55:05;12.00;69.00
32293;DHT22;43233;48.608;8.838;2023-08-07T06:57:31;12.00;69.40
32293;DHT22;43233;48.608;8.838;2023-08-07T06:59:57;12.10;67.60
32293;DHT22;43233;48.608;8.838;2023-08-07T07:02:22;12.20;66.50
32293;DHT22;43233;48.608;8.838;2023-08-07T07:04:48;12.20;66.90
32293;DHT22;43233;48.608;8.838;2023-08-07T07:07:14;12.20;67.40
32293;DHT22;43233;48.608;8.838;2023-08-07T07:09:39;12.30;68.60
32293;DHT22;43233;48.608;8.838;2023-08-07T07:12:05;12.40;66.60
32293;DHT22;43233;48.608;8.838;2023-08-07T07:14:32;12.40;66.00
32293;DHT22;43233;48.608;8.838;2023-08-07T07:16:59;12.40;63.90
32293;DHT22;43233;48.608;8.838;2023-08-07T07:19:24;12.50;64.50
32293;DHT22;43233;48.608;8.838;2023-08-07T07:21:50;12.50;65.60
32293;DHT22;43233;48.608;8.838;2023-08-07T07:24:16;12.50;64.10
32293;DHT22;43233;48.608;8.838;2023-08-07T07:26:41;12.50;63.70
32293;DHT22;43233;48.608;8.838;2023-08-07T07:29:07;12.60;62.40
32293;DHT22;43233;48.608;8.838;2023-08-07T07:31:33;12.70;62.60
32293;DHT22;43233;48.608;8.838;2023-08-07T07:33:58;12.80;61.90
32293;DHT22;43233;48.608;8.838;2023-08-07T07:36:24;12.80;61.70
32293;DHT22;43233;48.608;8.838;2023-08-07T07:38:50;12.90;62.00
32293;DHT22;43233;48.608;8.838;2023-08-07T07:41:16;12.90;61.30
32293;DHT22;43233;48.608;8.838;2023-08-07T07:43:41;13.00;62.00
32293;DHT22;43233;48.608;8.838;2023-08-07T07:46:07;13.10;61.10
32293;DHT22;43233;48.608;8.838;2023-08-07T07:48:36;13.20;59.00
32293;DHT22;43233;48.608;8.838;2023-08-07T07:51:02;13.20;59.50
32293;DHT22;43233;48.608;8.838;2023-08-07T07:53:30;13.20;59.90
32293;DHT22;43233;48.608;8.838;2023-08-07T07:55:57;13.30;58.90
32293;DHT22;43233;48.608;8.838;2023-08-07T07:58:23;13.40;59.80
32293;DHT22;43233;48.608;8.838;2023-08-07T08:00:49;13.40;57.00
32293;DHT22;43233;48.608;8.838;2023-08-07T08:03:14;13.50;58.00
32293;DHT22;43233;48.608;8.838;2023-08-07T08:05:40;13.50;56.30
32293;DHT22;43233;48.608;8.838;2023-08-07T08:08:07;13.50;56.60
32293;DHT22;43233;48.608;8.838;2023-08-07T08:10:33;13.70;55.60
32293;DHT22;43233;48.608;8.838;2023-08-07T08:12:59;13.80;52.40
32293;DHT22;43233;48.608;8.838;2023-08-07T08:15:25;13.90;51.40
32293;DHT22;43233;48.608;8.838;2023-08-07T08:17:51;14.00;52.70
32293;DHT22;43233;48.608;8.838;2023-08-07T08:20:17;14.10;51.20
32293;DHT22;43233;48.608;8.838;2023-08-07T08:22:46;14.10;52.50
32293;DHT22;43233;48.608;8.838;2023-08-07T08:25:12;14.30;51.30
32293;DHT22;43233;48.608;8.838;2023-08-07T08:27:40;14.30;52.50
32293;DHT22;43233;48.608;8.838;2023-08-07T08:30:06;14.20;51.80
32293;DHT22;43233;48.608;8.838;2023-08-07T08:32:32;14.30;53.30
32293;DHT22;43233;48.608;8.838;2023-08-07T08:34:58;14.30;51.50
32293;DHT22;43233;48.608;8.838;2023-08-07T08:37:24;14.10;52.50
32293;DHT22;43233;48.608;8.838;2023-08-07T08:39:50;14.10;52.50
32293;DHT22;43233;48.608;8.838;2023-08-07T08:42:15;14.00;49.10
32293;DHT22;43233;48.608;8.838;2023-08-07T08:44:48;13.90;48.40
32293;DHT22;43233;48.608;8.838;2023-08-07T08:47:17;13.90;50.30
32293;DHT22;43233;48.608;8.838;2023-08-07T08:50:02;13.90;50.70
32293;DHT22;43233;48.608;8.838;2023-08-07T08:52:29;14.10;49.70
32293;DHT22;43233;48.608;8.838;2023-08-07T08:54:57;14.10;50.40
32293;DHT22;43233;48.608;8.838;2023-08-07T08:57:25;14.20;50.20
32293;DHT22;43233;48.608;8.838;2023-08-07T08:59:51;14.40;52.90
32293;DHT22;43233;48.608;8.838;2023-08-07T09:02:17;14.50;49.90
32293;DHT22;43233;48.608;8.838;2023-08-07T09:04:44;14.50;44.80
32293;DHT22;43233;48.608;8.838;2023-08-07T09:07:11;14.50;46.90
32293;DHT22;43233;48.608;8.838;2023-08-07T09:09:39;14.60;45.40
32293;DHT22;43233;48.608;8.838;2023-08-07T09:12:08;14.70;48.20
32293;DHT22;43233;48.608;8.838;2023-08-07T09:14:34;14.90;43.80
32293;DHT22;43233;48.608;8.838;2023-08-07T09:17:03;15.00;43.30
32293;DHT22;43233;48.608;8.838;2023-08-07T09:19:29;15.10;45.10
32293;DHT22;43233;48.608;8.838;2023-08-07T09:21:55;15.10;43.70
32293;DHT22;43233;48.608;8.838;2023-08-07T09:24:21;15.20;44.80
32293;DHT22;43233;48.608;8.838;2023-08-07T09:26:48;15.20;44.80
32293;DHT22;43233;48.608;8.838;2023-08-07T09:29:16;15.00;44.50
32293;DHT22;43233;48.608;8.838;2023-08-07T09:31:44;14.90;45.00
32293;DHT22;43233;48.608;8.838;2023-08-07T09:34:11;14.90;45.00
32293;DHT22;43233;48.608;8.838;2023-08-07T09:36:39;14.80;45.50
32293;DHT22;43233;48.608;8.838;2023-08-07T09:39:06;14.90;43.90
32293;DHT22;43233;48.608;8.838;2023-08-07T09:41:32;14.90;45.10
32293;DHT22;43233;48.608;8.838;2023-08-07T09:43:58;15.00;44.70
32293;DHT22;43233;48.608;8.838;2023-08-07T09:46:25;15.00;46.10
32293;DHT22;43233;48.608;8.838;2023-08-07T09:48:51;15.00;45.30
32293;DHT22;43233;48.608;8.838;2023-08-07T09:51:17;15.10;44.30
32293;DHT22;43233;48.608;8.838;2023-08-07T09:53:42;15.10;44.40
32293;DHT22;43233;48.608;8.838;2023-08-07T09:56:08;15.20;43.90
32293;DHT22;43233;48.608;8.838;2023-08-07T09:58:35;15.20;44.30
32293;DHT22;43233;48.608;8.838;2023-08-07T10:01:04;15.30;44.70
32293;DHT22;43233;48.608;8.838;2023-08-07T10:03:30;15.30;46.70
32293;DHT22;43233;48.608;8.838;2023-08-07T10:05:57;15.20;43.80
32293;DHT22;43233;48.608;8.838;2023-08-07T10:08:26;15.30;44.90
32293;DHT22;43233;48.608;8.838;2023-08-07T10:10:52;15.30;43.20
32293;DHT22;43233;48.608;8.838;2023-08-07T10:13:18;15.50;44.00
32293;DHT22;43233;48.608;8.838;2023-08-07T10:15:44;15.60;44.50
32293;DHT22;43233;48.608;8.838;2023-08-07T10:18:11;15.70;44.40
32293;DHT22;43233;48.608;8.838;2023-08-07T10:20:38;15.70;42.20
32293;DHT22;43233;48.608;8.838;2023-08-07T10:23:08;15.60;43.20
32293;DHT22;43233;48.608;8.838;2023-08-07T10:25:36;15.60;43.40
32293;DHT22;43233;48.608;8.838;2023-08-07T10:28:05;15.80;45.10
32293;DHT22;43233;48.608;8.838;2023-08-07T10:30:32;16.00;42.70
32293;DHT22;43233;48.608;8.838;2023-08-07T10:32:59;16.00;43.30
32293;DHT22;43233;48.608;8.838;2023-08-07T10:35:34;16.00;43.20
32293;DHT22;43233;48.608;8.838;2023-08-07T10:38:10;16.10;43.10
32293;DHT22;43233;48.608;8.838;2023-08-07T10:40:58;16.20;41.00
32293;DHT22;43233;48.608;8.838;2023-08-07T10:43:24;16.30;41.80
32293;DHT22;43233;48.608;8.838;2023-08-07T10:45:50;16.40;40.90
32293;DHT22;43233;48.608;8.838;2023-08-07T10:48:20;16.30;41.50
32293;DHT22;43233;48.608;8.838;2023-08-07T10:51:02;16.20;41.90
32293;DHT22;43233;48.608;8.838;2023-08-07T10:53:42;16.20;39.20
32293;DHT22;43233;48.608;8.838;2023-08-07T10:56:32;16.00;41.10
32293;DHT22;43233;48.608;8.838;2023-08-07T10:58:56;16.00;42.40
32293;DHT22;43233;48.608;8.838;2023-08-07T11:04:06;15.70;42.40
32293;DHT22;43233;48.608;8.838;2023-08-07T11:06:35;15.60;42.80
32293;DHT22;43233;48.608;8.838;2023-08-07T11:09:02;15.40;42.80
32293;DHT22;43233;48.608;8.838;2023-08-07T11:11:29;15.20;42.60
32293;DHT22;43233;48.608;8.838;2023-08-07T11:13:55;15.20;44.10
32293;DHT22;43233;48.608;8.838;2023-08-07T11:16:21;15.20;44.70
32293;DHT22;43233;48.608;8.838;2023-08-07T11:18:49;15.30;45.80
32293;DHT22;43233;48.608;8.838;2023-08-07T11:21:15;15.40;44.20
32293;DHT22;43233;48.608;8.838;2023-08-07T11:23:41;15.50;44.90
32293;DHT22;43233;48.608;8.838;2023-08-07T11:26:10;15.60;43.20
32293;DHT22;43233;48.608;8.838;2023-08-07T11:28:37;15.80;43.10
32293;DHT22;43233;48.608;8.838;2023-08-07T11:31:03;15.80;41.50
32293;DHT22;43233;48.608;8.838;2023-08-07T11:33:29;15.80;41.30
32293;DHT22;43233;48.608;8.838;2023-08-07T11:35:55;15.60;41.30
32293;DHT22;43233;48.608;8.838;2023-08-07T11:38:36;15.50;42.90
32293;DHT22;43233;48.608;8.838;2023-08-07T11:41:06;15.40;42.20
32293;DHT22;43233;48.608;8.838;2023-08-07T11:43:33;15.40;42.80
32293;DHT22;43233;48.608;8.838;2023-08-07T11:46:05;15.30;43.70
32293;DHT22;43233;48.608;8.838;2023-08-07T11:48:32;15.20;44.10
32293;DHT22;43233;48.608;8.838;2023-08-07T11:50:59;15.30;44.10
32293;DHT22;43233;48.608;8.838;2023-08-07T11:53:27;15.30;44.10
32293;DHT22;43233;48.608;8.838;2023-08-07T11:55:58;15.30;43.70
32293;DHT22;43233;48.608;8.838;2023-08-07T11:58:45;15.30;43.90
32293;DHT22;43233;48.608;8.838;2023-08-07T12:01:15;15.20;45.90
32293;DHT22;43233;48.608;8.838;2023-08-07T12:03:50;15.10;45.70
32293;DHT22;43233;48.608;8.838;2023-08-07T12:06:16;15.00;45.60
32293;DHT22;43233;48.608;8.838;2023-08-07T12:08:42;14.90;47.20
32293;DHT22;43233;48.608;8.838;2023-08-07T12:11:12;14.90;47.20
32293;DHT22;43233;48.608;8.838;2023-08-07T12:13:39;14.90;47.70
32293;DHT22;43233;48.608;8.838;2023-08-07T12:16:06;14.90;45.20
32293;DHT22;43233;48.608;8.838;2023-08-07T12:18:32;15.00;46.10
32293;DHT22;43233;48.608;8.838;2023-08-07T12:21:03;15.10;46.10
32293;DHT22;43233;48.608;8.838;2023-08-07T12:23:33;15.20;45.90
32293;DHT22;43233;48.608;8.838;2023-08-07T12:26:00;15.40;45.70
32293;DHT22;43233;48.608;8.838;2023-08-07T12:28:25;15.50;45.60
32293;DHT22;43233;48.608;8.838;2023-08-07T12:30:52;15.50;44.80
32293;DHT22;43233;48.608;8.838;2023-08-07T12:33:18;15.50;44.90
32293;DHT22;43233;48.608;8.838;2023-08-07T12:35:44;15.50;44.70
32293;DHT22;43233;48.608;8.838;2023-08-07T12:38:10;15.40;45.00
32293;DHT22;43233;48.608;8.838;2023-08-07T12:40:36;15.20;43.80
32293;DHT22;43233;48.608;8.838;2023-08-07T12:43:03;15.10;43.50
32293;DHT22;43233;48.608;8.838;2023-08-07T12:45:29;15.10;45.80
32293;DHT22;43233;48.608;8.838;2023-08-07T12:47:55;15.00;44.20
32293;DHT22;43233;48.608;8.838;2023-08-07T12:50:20;15.10;45.10
32293;DHT22;43233;48.608;8.838;2023-08-07T12:52:46;15.20;45.00
32293;DHT22;43233;48.608;8.838;2023-08-07T12:55:12;15.50;45.70
32293;DHT22;43233;48.608;8.838;2023-08-07T12:57:41;15.70;45.20
32293;DHT22;43233;48.608;8.838;2023-08-07T13:00:11;16.00;45.00
32293;DHT22;43233;48.608;8.838;2023-08-07T13:02:44;16.40;42.80
32293;DHT22;43233;48.608;8.838;2023-08-07T13:05:10;16.50;41.50
32293;DHT22;43233;48.608;8.838;2023-08-07T13:07:39;16.60;41.10
32293;DHT22;43233;48.608;8.838;2023-08-07T13:10:06;16.60;39.80
32293;DHT22;43233;48.608;8.838;2023-08-07T13:12:36;16.40;41.60
32293;DHT22;43233;48.608;8.838;2023-08-07T13:15:08;16.30;40.50
32293;DHT22;43233;48.608;8.838;2023-08-07T13:17:34;16.10;40.70
32293;DHT22;43233;48.608;8.838;2023-08-07T13:20:01;16.00;41.20
32293;DHT22;43233;48.608;8.838;2023-08-07T13:22:28;15.90;42.70
32293;DHT22;43233;48.608;8.838;2023-08-07T13:24:54;15.80;42.00
32293;DHT22;43233;48.608;8.838;2023-08-07T13:27:20;15.80;42.60
32293;DHT22;43233;48.608;8.838;2023-08-07T13:29:46;15.80;44.30
32293;DHT22;43233;48.608;8.838;2023-08-07T13:32:12;16.00;45.70
32293;DHT22;43233;48.608;8.838;2023-08-07T13:34:38;16.40;43.40
32293;DHT22;43233;48.608;8.838;2023-08-07T13:37:05;16.70;42.50
32293;DHT22;43233;48.608;8.838;2023-08-07T13:39:31;16.90;41.20
32293;DHT22;43233;48.608;8.838;2023-08-07T13:41:57;17.20;39.90
32293;DHT22;43233;48.608;8.838;2023-08-07T13:44:22;17.40;41.30
32293;DHT22;43233;48.608;8.838;2023-08-07T13:46:48;17.70;40.50
32293;DHT22;43233;48.608;8.838;2023-08-07T13:49:14;17.80;38.10
32293;DHT22;43233;48.608;8.838;2023-08-07T13:51:43;18.00;36.00
32293;DHT22;43233;48.608;8.838;2023-08-07T13:54:09;18.00;36.70
32293;DHT22;43233;48.608;8.838;2023-08-07T13:56:35;18.20;35.00
32293;DHT22;43233;48.608;8.838;2023-08-07T13:59:01;18.40;34.50
32293;DHT22;43233;48.608;8.838;2023-08-07T14:01:27;18.50;33.60
32293;DHT22;43233;48.608;8.838;2023-08-07T14:03:54;18.30;34.10
32293;DHT22;43233;48.608;8.838;2023-08-07T14:06:20;18.30;34.30
32293;DHT22;43233;48.608;8.838;2023-08-07T14:08:46;18.10;34.80
32293;DHT22;43233;48.608;8.838;2023-08-07T14:11:12;18.00;36.80
32293;DHT22;43233;48.608;8.838;2023-08-07T14:13:40;18.00;36.90
32293;DHT22;43233;48.608;8.838;2023-08-07T14:16:06;18.20;36.10
32293;DHT22;43233;48.608;8.838;2023-08-07T14:18:32;18.10;34.10
32293;DHT22;43233;48.608;8.838;2023-08-07T14:20:57;18.00;35.30
32293;DHT22;43233;48.608;8.838;2023-08-07T14:23:23;17.80;36.00
32293;DHT22;43233;48.608;8.838;2023-08-07T14:25:49;17.60;36.90
32293;DHT22;43233;48.608;8.838;2023-08-07T14:28:18;17.40;38.40
32293;DHT22;43233;48.608;8.838;2023-08-07T14:30:44;17.10;38.70
32293;DHT22;43233;48.608;8.838;2023-08-07T14:33:10;16.90;38.40
32293;DHT22;43233;48.608;8.838;2023-08-07T14:35:36;16.70;39.20
32293;DHT22;43233;48.608;8.838;2023-08-07T14:38:01;16.60;40.10
32293;DHT22;43233;48.608;8.838;2023-08-07T14:40:27;16.50;41.10
32293;DHT22;43233;48.608;8.838;2023-08-07T14:42:54;16.50;41.40
32293;DHT22;43233;48.608;8.838;2023-08-07T14:45:20;16.50;41.20
32293;DHT22;43233;48.608;8.838;2023-08-07T14:47:48;16.50;41.10
32293;DHT22;43233;48.608;8.838;2023-08-07T14:50:13;16.50;41.90
32293;DHT22;43233;48.608;8.838;2023-08-07T14:52:41;16.50;42.40
32293;DHT22;43233;48.608;8.838;2023-08-07T14:55:07;16.60;41.70
32293;DHT22;43233;48.608;8.838;2023-08-07T14:57:32;16.70;43.10
32293;DHT22;43233;48.608;8.838;2023-08-07T14:59:58;16.90;42.60
32293;DHT22;43233;48.608;8.838;2023-08-07T15:02:24;17.10;42.20
32293;DHT22;43233;48.608;8.838;2023-08-07T15:04:49;17.40;39.80
32293;DHT22;43233;48.608;8.838;2023-08-07T15:07:15;17.60;37.90
32293;DHT22;43233;48.608;8.838;2023-08-07T15:09:41;17.90;37.10
32293;DHT22;43233;48.608;8.838;2023-08-07T15:12:07;18.10;36.60
32293;DHT22;43233;48.608;8.838;2023-08-07T15:14:33;18.20;37.50
32293;DHT22;43233;48.608;8.838;2023-08-07T15:16:59;18.30;36.40
32293;DHT22;43233;48.608;8.838;2023-08-07T15:19:24;18.20;35.60
32293;DHT22;43233;48.608;8.838;2023-08-07T15:21:51;18.20;35.70
32293;DHT22;43233;48.608;8.838;2023-08-07T15:24:17;18.00;36.30
32293;DHT22;43233;48.608;8.838;2023-08-07T15:26:43;17.90;35.90
32293;DHT22;43233;48.608;8.838;2023-08-07T15:29:09;17.60;35.60
32293;DHT22;43233;48.608;8.838;2023-08-07T15:31:34;17.40;36.60
32293;DHT22;43233;48.608;8.838;2023-08-07T15:34:00;17.40;37.70
32293;DHT22;43233;48.608;8.838;2023-08-07T15:36:26;17.30;37.70
32293;DHT22;43233;48.608;8.838;2023-08-07T15:38:52;17.20;38.90
32293;DHT22;43233;48.608;8.838;2023-08-07T15:41:17;17.20;39.50
32293;DHT22;43233;48.608;8.838;2023-08-07T15:43:43;17.10;40.10